Kezdőlap
METAR-TAF:

METAR-TAF

Repülőterek :

El Salvador nemzetközi repülőtér

Salvador, El Salvador

földrajzi szélesség: 13-26N, földrajzi hosszúság: 089-03W, magasság: 25 m

Jelenlegi meteorológiai megfigyelések

A jelentés 55 perccel ezelõtt készült, 02:50 UTC
Északi szél 5 kt
Hőmérséklet 26°C
Páratartalom 84%
Légköri nyomás 1013 hPa
Látótávolság 10 km, vagy több
Kevés felhő 7800 lábon

METAR: MSLP 100250Z 36005KT 9999 FEW078 26/23 Q1013 A2992 NOSIG

Idő: 21:45 (03:45 UTC)

Előrejelzés

A jelentés 6 órával és 20 perccel ezelõtt készült, 21:25 UTC
Az előrejelzés 10-én 00 óra UTC és 10-én 24 óra UTC között érvényes
Észak-északkeleti szél 10 kt
Látótávolság 10 km, vagy több
Kevés felhő 7000 lábon
10-én 20 óra UTC és 10-én 24 óra UTC között ideiglenes
Dél-délnyugati szél 8 kt
Látótávolság 10 km, vagy több
Szórványos felhőzet 4700 lábon

TAF: MSLP 092125Z 1000/1024 02010KT 9999 FEW070 TX34/1018Z TN23/1012Z TEMPO 1020/1024 20008KT 9999 SCT047

Meteorológiai megfigyelések és előrejelzések több, mint 4000 repülőtéren (METAR és TAF jelentéseket).

A térképen piros és sárga pontok jelzik az elérhető meteorológiai állomásokat.

Mozgassa az egeret a pont fölött, hogy megjelenjen az állomás neve.

Azután kattintson az időjárási megfigyelések és előrejelzések megtekintéséhez.

A térkép megváltoztatása: kattintson a fekete keresztel jelölt zöld gombra ráközelítéshez, a vonallal jelölt zöld gombra távolításhoz, vagy a zöld nyilakra a szomszédos térképek eléréséhez.


METAR-TAF: